Terminal Aerodrome Forecast
Issued by NWS Twin Cities, MN

Home | Current Version | Previous Version | Graphics & Text | Print | Product List | Glossary On
Versions: 1 2 3 4 5 6 7 8 9 10 11 12 13 14 15 16 17 18 19
860
FTUS43 KMPX 271120
TAFSTC
TAF
KSTC 271120Z 2712/2812 VRB03KT P6SM SCT007 BKN100 OVC250
     FM271400 09005KT P6SM -SHRA SCT025 OVC050
      TEMPO 2714/2718 4SM -TSRA OVC020CB
     FM272200 VRB06KT P6SM SCT020 OVC035
     FM280500 VRB03KT 3SM BR SCT007 OVC015=

USA.gov is the U.S. government's official web portal to all federal, state and local government web resources and services.